sensor_id;sensor_type;location;lat;lon;timestamp;pressure;altitude;pressure_sealevel;temperature;humidity
19751;BME280;4663;49.120;9.730;2023-02-18T00:00:24;98874.88;;;7.70;85.21
19751;BME280;4663;49.120;9.730;2023-02-18T00:02:49;98873.59;;;7.74;84.80
19751;BME280;4663;49.120;9.730;2023-02-18T00:05:15;98862.31;;;7.80;84.65
19751;BME280;4663;49.120;9.730;2023-02-18T00:07:41;98867.34;;;7.93;84.13
19751;BME280;4663;49.120;9.730;2023-02-18T00:10:11;98866.31;;;8.04;83.45
19751;BME280;4663;49.120;9.730;2023-02-18T00:12:45;98861.00;;;7.85;83.75
19751;BME280;4663;49.120;9.730;2023-02-18T00:15:11;98856.97;;;7.99;84.26
19751;BME280;4663;49.120;9.730;2023-02-18T00:17:42;98867.59;;;8.00;84.20
19751;BME280;4663;49.120;9.730;2023-02-18T00:20:08;98853.63;;;7.87;84.39
19751;BME280;4663;49.120;9.730;2023-02-18T00:22:36;98869.13;;;8.03;83.93
19751;BME280;4663;49.120;9.730;2023-02-18T00:25:02;98864.00;;;7.81;84.17
19751;BME280;4663;49.120;9.730;2023-02-18T00:27:29;98866.78;;;7.90;84.10
19751;BME280;4663;49.120;9.730;2023-02-18T00:29:54;98865.44;;;8.04;83.71
19751;BME280;4663;49.120;9.730;2023-02-18T00:32:20;98868.84;;;8.06;83.65
19751;BME280;4663;49.120;9.730;2023-02-18T00:34:45;98871.56;;;7.96;83.71
19751;BME280;4663;49.120;9.730;2023-02-18T00:37:14;98867.25;;;7.75;84.59
19751;BME280;4663;49.120;9.730;2023-02-18T00:39:39;98870.09;;;7.74;85.34
19751;BME280;4663;49.120;9.730;2023-02-18T00:42:05;98860.16;;;7.74;84.60
19751;BME280;4663;49.120;9.730;2023-02-18T00:44:30;98858.25;;;7.56;85.49
19751;BME280;4663;49.120;9.730;2023-02-18T00:46:56;98865.84;;;7.81;84.95
19751;BME280;4663;49.120;9.730;2023-02-18T00:49:21;98845.50;;;7.59;85.88
19751;BME280;4663;49.120;9.730;2023-02-18T00:51:47;98861.41;;;7.90;84.62
19751;BME280;4663;49.120;9.730;2023-02-18T00:54:12;98858.47;;;7.83;84.71
19751;BME280;4663;49.120;9.730;2023-02-18T00:56:37;98855.84;;;7.53;85.32
19751;BME280;4663;49.120;9.730;2023-02-18T00:59:03;98848.59;;;7.74;85.06
19751;BME280;4663;49.120;9.730;2023-02-18T01:01:28;98851.88;;;7.57;85.79
19751;BME280;4663;49.120;9.730;2023-02-18T01:03:54;98859.53;;;7.52;86.12
19751;BME280;4663;49.120;9.730;2023-02-18T01:06:19;98866.19;;;7.48;86.08
19751;BME280;4663;49.120;9.730;2023-02-18T01:08:46;98851.19;;;7.55;85.60
19751;BME280;4663;49.120;9.730;2023-02-18T01:11:12;98857.06;;;7.69;85.06
19751;BME280;4663;49.120;9.730;2023-02-18T01:13:39;98853.09;;;7.73;85.13
19751;BME280;4663;49.120;9.730;2023-02-18T01:16:04;98857.34;;;7.66;85.63
19751;BME280;4663;49.120;9.730;2023-02-18T01:18:30;98857.34;;;7.66;85.59
19751;BME280;4663;49.120;9.730;2023-02-18T01:20:56;98859.75;;;7.69;85.81
19751;BME280;4663;49.120;9.730;2023-02-18T01:23:22;98860.63;;;7.79;85.77
19751;BME280;4663;49.120;9.730;2023-02-18T01:25:47;98866.38;;;7.75;85.87
19751;BME280;4663;49.120;9.730;2023-02-18T01:28:13;98858.06;;;7.68;86.50
19751;BME280;4663;49.120;9.730;2023-02-18T01:30:39;98847.75;;;7.63;86.31
19751;BME280;4663;49.120;9.730;2023-02-18T01:33:05;98864.56;;;7.75;85.56
19751;BME280;4663;49.120;9.730;2023-02-18T01:35:30;98854.25;;;7.71;85.48
19751;BME280;4663;49.120;9.730;2023-02-18T01:37:56;98852.16;;;7.54;85.90
19751;BME280;4663;49.120;9.730;2023-02-18T01:40:24;98854.84;;;7.54;85.81
19751;BME280;4663;49.120;9.730;2023-02-18T01:42:50;98853.69;;;7.67;86.21
19751;BME280;4663;49.120;9.730;2023-02-18T01:50:32;98838.41;;;7.77;85.06
19751;BME280;4663;49.120;9.730;2023-02-18T01:53:00;98842.38;;;7.63;85.51
19751;BME280;4663;49.120;9.730;2023-02-18T01:55:26;98841.56;;;7.53;85.58
19751;BME280;4663;49.120;9.730;2023-02-18T01:57:52;98847.03;;;7.81;84.34
19751;BME280;4663;49.120;9.730;2023-02-18T02:00:18;98843.06;;;7.75;84.61
19751;BME280;4663;49.120;9.730;2023-02-18T02:02:49;98846.63;;;7.66;84.59
19751;BME280;4663;49.120;9.730;2023-02-18T02:05:16;98849.41;;;7.74;85.39
19751;BME280;4663;49.120;9.730;2023-02-18T02:07:44;98843.50;;;7.71;84.91
19751;BME280;4663;49.120;9.730;2023-02-18T02:10:11;98843.88;;;7.86;84.74
19751;BME280;4663;49.120;9.730;2023-02-18T02:26:28;98832.28;;;7.85;84.03
19751;BME280;4663;49.120;9.730;2023-02-18T02:34:54;98822.06;;;7.51;85.74
19751;BME280;4663;49.120;9.730;2023-02-18T02:40:22;98805.72;;;7.72;84.58
19751;BME280;4663;49.120;9.730;2023-02-18T02:48:28;98804.03;;;7.81;84.57
19751;BME280;4663;49.120;9.730;2023-02-18T02:53:30;98803.19;;;7.71;84.23
19751;BME280;4663;49.120;9.730;2023-02-18T02:55:58;98802.75;;;7.75;83.87
19751;BME280;4663;49.120;9.730;2023-02-18T02:58:23;98802.31;;;7.70;84.09
19751;BME280;4663;49.120;9.730;2023-02-18T03:04:03;98799.81;;;7.59;84.57
19751;BME280;4663;49.120;9.730;2023-02-18T03:09:59;98794.25;;;7.70;84.43
19751;BME280;4663;49.120;9.730;2023-02-18T03:12:36;98773.06;;;7.77;83.89
19751;BME280;4663;49.120;9.730;2023-02-18T03:20:27;98783.81;;;7.77;83.66
19751;BME280;4663;49.120;9.730;2023-02-18T03:22:54;98785.44;;;7.88;83.41
19751;BME280;4663;49.120;9.730;2023-02-18T03:25:22;98782.91;;;7.76;83.71
19751;BME280;4663;49.120;9.730;2023-02-18T03:27:54;98785.22;;;7.71;84.18
19751;BME280;4663;49.120;9.730;2023-02-18T03:30:29;98792.22;;;7.54;84.43
19751;BME280;4663;49.120;9.730;2023-02-18T03:32:59;98804.03;;;7.71;84.81
19751;BME280;4663;49.120;9.730;2023-02-18T03:35:27;98805.00;;;7.70;84.55
19751;BME280;4663;49.120;9.730;2023-02-18T03:38:09;98803.56;;;7.76;84.03
19751;BME280;4663;49.120;9.730;2023-02-18T03:40:37;98812.94;;;7.72;84.03
19751;BME280;4663;49.120;9.730;2023-02-18T03:43:02;98808.25;;;7.74;83.73
19751;BME280;4663;49.120;9.730;2023-02-18T03:45:28;98814.66;;;7.63;83.75
19751;BME280;4663;49.120;9.730;2023-02-18T03:47:53;98810.78;;;7.47;84.43
19751;BME280;4663;49.120;9.730;2023-02-18T03:50:19;98794.09;;;7.72;84.32
19751;BME280;4663;49.120;9.730;2023-02-18T03:52:44;98796.59;;;7.55;84.51
19751;BME280;4663;49.120;9.730;2023-02-18T03:55:10;98796.41;;;7.66;84.46
19751;BME280;4663;49.120;9.730;2023-02-18T03:57:35;98801.53;;;7.60;84.65
19751;BME280;4663;49.120;9.730;2023-02-18T04:00:01;98794.25;;;7.70;84.21
19751;BME280;4663;49.120;9.730;2023-02-18T04:02:27;98797.81;;;7.71;84.42
19751;BME280;4663;49.120;9.730;2023-02-18T04:04:52;98798.06;;;7.77;83.77
19751;BME280;4663;49.120;9.730;2023-02-18T04:07:17;98801.50;;;7.69;83.91
19751;BME280;4663;49.120;9.730;2023-02-18T04:09:43;98789.34;;;7.65;84.06
19751;BME280;4663;49.120;9.730;2023-02-18T04:12:08;98792.25;;;7.82;83.85
19751;BME280;4663;49.120;9.730;2023-02-18T04:14:34;98790.31;;;7.64;84.31
19751;BME280;4663;49.120;9.730;2023-02-18T04:16:59;98786.38;;;7.59;84.28
19751;BME280;4663;49.120;9.730;2023-02-18T04:19:25;98785.22;;;7.71;83.92
19751;BME280;4663;49.120;9.730;2023-02-18T04:21:51;98786.94;;;7.62;84.32
19751;BME280;4663;49.120;9.730;2023-02-18T04:24:16;98788.34;;;7.66;84.39
19751;BME280;4663;49.120;9.730;2023-02-18T04:26:41;98786.94;;;7.62;84.43
19751;BME280;4663;49.120;9.730;2023-02-18T04:29:07;98795.66;;;7.36;85.16
19751;BME280;4663;49.120;9.730;2023-02-18T04:31:32;98793.28;;;7.71;83.88
19751;BME280;4663;49.120;9.730;2023-02-18T04:33:57;98785.22;;;7.71;84.07
19751;BME280;4663;49.120;9.730;2023-02-18T04:36:23;98787.00;;;7.52;84.77
19751;BME280;4663;49.120;9.730;2023-02-18T04:38:48;98793.63;;;7.58;84.88
19751;BME280;4663;49.120;9.730;2023-02-18T04:41:14;98794.56;;;7.77;84.35
19751;BME280;4663;49.120;9.730;2023-02-18T04:43:39;98784.13;;;7.64;83.70
19751;BME280;4663;49.120;9.730;2023-02-18T04:46:05;98792.03;;;7.65;84.50
19751;BME280;4663;49.120;9.730;2023-02-18T04:48:30;98789.84;;;7.41;85.24
19751;BME280;4663;49.120;9.730;2023-02-18T04:50:55;98795.16;;;7.61;84.92
19751;BME280;4663;49.120;9.730;2023-02-18T04:53:21;98789.88;;;7.69;84.58
19751;BME280;4663;49.120;9.730;2023-02-18T04:55:50;98793.25;;;7.43;84.82
19751;BME280;4663;49.120;9.730;2023-02-18T04:58:16;98801.25;;;7.53;84.75
19751;BME280;4663;49.120;9.730;2023-02-18T05:00:42;98791.25;;;7.45;85.25
19751;BME280;4663;49.120;9.730;2023-02-18T05:03:07;98791.53;;;7.42;85.43
19751;BME280;4663;49.120;9.730;2023-02-18T05:05:32;98791.97;;;7.47;85.51
19751;BME280;4663;49.120;9.730;2023-02-18T05:07:58;98794.00;;;7.25;85.74
19751;BME280;4663;49.120;9.730;2023-02-18T05:10:23;98790.75;;;7.32;86.20
19751;BME280;4663;49.120;9.730;2023-02-18T05:12:48;98795.09;;;7.42;85.39
19751;BME280;4663;49.120;9.730;2023-02-18T05:15:14;98791.03;;;7.28;86.11
19751;BME280;4663;49.120;9.730;2023-02-18T05:17:39;98790.75;;;7.32;85.95
19751;BME280;4663;49.120;9.730;2023-02-18T05:20:05;98784.59;;;7.49;85.27
19751;BME280;4663;49.120;9.730;2023-02-18T05:22:31;98783.13;;;7.65;84.79
19751;BME280;4663;49.120;9.730;2023-02-18T05:24:56;98784.88;;;7.46;85.30
19751;BME280;4663;49.120;9.730;2023-02-18T05:27:22;98787.59;;;7.36;86.02
19751;BME280;4663;49.120;9.730;2023-02-18T05:29:47;98780.84;;;7.22;86.68
19751;BME280;4663;49.120;9.730;2023-02-18T05:32:12;98772.78;;;7.32;86.42
19751;BME280;4663;49.120;9.730;2023-02-18T05:34:38;98772.84;;;7.50;85.82
19751;BME280;4663;49.120;9.730;2023-02-18T05:37:03;98758.97;;;7.55;85.43
19751;BME280;4663;49.120;9.730;2023-02-18T05:39:29;98757.81;;;7.29;85.57
19751;BME280;4663;49.120;9.730;2023-02-18T05:41:54;98763.50;;;7.54;85.48
19751;BME280;4663;49.120;9.730;2023-02-18T05:44:19;98756.56;;;7.52;85.19
19751;BME280;4663;49.120;9.730;2023-02-18T05:47:06;98756.69;;;7.22;86.28
19751;BME280;4663;49.120;9.730;2023-02-18T05:49:33;98767.13;;;7.35;85.96
19751;BME280;4663;49.120;9.730;2023-02-18T05:51:59;98766.88;;;7.28;85.89
19751;BME280;4663;49.120;9.730;2023-02-18T05:54:25;98769.56;;;7.56;85.37
19751;BME280;4663;49.120;9.730;2023-02-18T05:56:50;98769.41;;;7.30;85.97
19751;BME280;4663;49.120;9.730;2023-02-18T05:59:16;98780.66;;;7.43;85.76
19751;BME280;4663;49.120;9.730;2023-02-18T06:01:41;98778.22;;;7.50;85.17
19751;BME280;4663;49.120;9.730;2023-02-18T06:04:07;98774.84;;;7.48;85.17
19751;BME280;4663;49.120;9.730;2023-02-18T06:06:33;98767.97;;;7.36;85.12
19751;BME280;4663;49.120;9.730;2023-02-18T06:08:58;98770.25;;;7.59;84.67
19751;BME280;4663;49.120;9.730;2023-02-18T06:11:24;98775.75;;;7.29;84.94
19751;BME280;4663;49.120;9.730;2023-02-18T06:13:49;98776.03;;;7.36;84.69
19751;BME280;4663;49.120;9.730;2023-02-18T06:16:14;98771.09;;;7.31;84.28
19751;BME280;4663;49.120;9.730;2023-02-18T06:18:40;98772.44;;;7.45;83.98
19751;BME280;4663;49.120;9.730;2023-02-18T06:21:05;98774.09;;;7.18;84.51
19751;BME280;4663;49.120;9.730;2023-02-18T06:23:31;98770.84;;;7.24;84.50
19751;BME280;4663;49.120;9.730;2023-02-18T06:25:56;98776.88;;;7.26;84.52
19751;BME280;4663;49.120;9.730;2023-02-18T06:28:21;98777.03;;;7.63;82.94
19751;BME280;4663;49.120;9.730;2023-02-18T06:30:48;98782.53;;;7.33;84.14
19751;BME280;4663;49.120;9.730;2023-02-18T06:33:13;98781.75;;;7.51;83.14
19751;BME280;4663;49.120;9.730;2023-02-18T06:35:39;98775.38;;;7.52;83.22
19751;BME280;4663;49.120;9.730;2023-02-18T06:38:05;98776.78;;;7.56;83.15
19751;BME280;4663;49.120;9.730;2023-02-18T06:40:30;98762.31;;;7.29;83.90
19751;BME280;4663;49.120;9.730;2023-02-18T06:42:56;98768.44;;;7.21;84.65
19751;BME280;4663;49.120;9.730;2023-02-18T06:45:21;98757.44;;;7.14;84.95
19751;BME280;4663;49.120;9.730;2023-02-18T06:47:47;98753.50;;;7.47;83.78
19751;BME280;4663;49.120;9.730;2023-02-18T06:50:13;98759.84;;;7.55;83.33
19751;BME280;4663;49.120;9.730;2023-02-18T06:52:39;98758.34;;;7.71;82.47
19751;BME280;4663;49.120;9.730;2023-02-18T06:55:05;98759.03;;;7.73;82.48
19751;BME280;4663;49.120;9.730;2023-02-18T06:57:32;98759.38;;;7.60;82.16
19751;BME280;4663;49.120;9.730;2023-02-18T06:59:57;98753.72;;;7.25;83.32
19751;BME280;4663;49.120;9.730;2023-02-18T07:02:22;98761.69;;;7.45;83.42
19751;BME280;4663;49.120;9.730;2023-02-18T07:04:48;98750.19;;;7.53;83.20
19751;BME280;4663;49.120;9.730;2023-02-18T07:07:13;98749.38;;;7.52;83.36
19751;BME280;4663;49.120;9.730;2023-02-18T07:09:39;98755.06;;;7.39;83.78
19751;BME280;4663;49.120;9.730;2023-02-18T07:12:04;98745.19;;;7.40;83.48
19751;BME280;4663;49.120;9.730;2023-02-18T07:14:30;98744.75;;;7.35;83.48
19751;BME280;4663;49.120;9.730;2023-02-18T07:16:55;98741.50;;;7.41;83.59
19751;BME280;4663;49.120;9.730;2023-02-18T07:19:20;98740.47;;;7.52;83.07
19751;BME280;4663;49.120;9.730;2023-02-18T07:21:46;98734.59;;;7.38;83.73
19751;BME280;4663;49.120;9.730;2023-02-18T07:24:11;98743.78;;;7.36;84.11
19751;BME280;4663;49.120;9.730;2023-02-18T07:26:37;98736.13;;;7.41;84.00
19751;BME280;4663;49.120;9.730;2023-02-18T07:29:02;98720.53;;;7.44;83.12
19751;BME280;4663;49.120;9.730;2023-02-18T07:31:27;98724.75;;;7.57;82.93
19751;BME280;4663;49.120;9.730;2023-02-18T07:33:53;98704.94;;;7.58;82.84
19751;BME280;4663;49.120;9.730;2023-02-18T07:36:18;98728.06;;;7.41;83.38
19751;BME280;4663;49.120;9.730;2023-02-18T07:38:43;98716.94;;;7.64;82.23
19751;BME280;4663;49.120;9.730;2023-02-18T07:41:27;98709.84;;;7.63;81.91
19751;BME280;4663;49.120;9.730;2023-02-18T07:43:55;98705.69;;;7.78;81.46
19751;BME280;4663;49.120;9.730;2023-02-18T07:46:20;98710.63;;;7.83;82.16
19751;BME280;4663;49.120;9.730;2023-02-18T07:48:46;98702.03;;;7.98;81.40
19751;BME280;4663;49.120;9.730;2023-02-18T07:51:11;98703.63;;;7.90;81.11
19751;BME280;4663;49.120;9.730;2023-02-18T07:53:37;98711.50;;;8.02;80.75
19751;BME280;4663;49.120;9.730;2023-02-18T07:56:03;98707.84;;;7.93;80.87
19751;BME280;4663;49.120;9.730;2023-02-18T07:58:31;98706.94;;;8.02;81.28
19751;BME280;4663;49.120;9.730;2023-02-18T08:00:58;98698.72;;;8.04;81.27
19751;BME280;4663;49.120;9.730;2023-02-18T08:03:28;98701.56;;;8.02;80.37
19751;BME280;4663;49.120;9.730;2023-02-18T08:05:54;98701.97;;;8.07;80.89
19751;BME280;4663;49.120;9.730;2023-02-18T08:08:26;98688.19;;;7.92;80.23
19751;BME280;4663;49.120;9.730;2023-02-18T08:10:53;98697.13;;;8.11;80.00
19751;BME280;4663;49.120;9.730;2023-02-18T08:13:19;98691.81;;;8.19;81.24
19751;BME280;4663;49.120;9.730;2023-02-18T08:15:44;98701.59;;;8.20;79.45
19751;BME280;4663;49.120;9.730;2023-02-18T08:18:14;98689.81;;;8.40;79.02
19751;BME280;4663;49.120;9.730;2023-02-18T08:20:40;98678.69;;;8.61;78.53
19751;BME280;4663;49.120;9.730;2023-02-18T08:23:05;98688.81;;;8.67;78.36
19751;BME280;4663;49.120;9.730;2023-02-18T08:25:31;98676.22;;;8.68;78.00
19751;BME280;4663;49.120;9.730;2023-02-18T08:27:57;98671.59;;;8.60;77.52
19751;BME280;4663;49.120;9.730;2023-02-18T08:30:23;98675.84;;;8.63;77.97
19751;BME280;4663;49.120;9.730;2023-02-18T08:32:49;98671.19;;;8.73;77.73
19751;BME280;4663;49.120;9.730;2023-02-18T08:35:14;98678.84;;;8.59;78.02
19751;BME280;4663;49.120;9.730;2023-02-18T08:37:40;98665.69;;;8.56;77.05
19751;BME280;4663;49.120;9.730;2023-02-18T08:40:06;98662.00;;;8.84;77.79
19751;BME280;4663;49.120;9.730;2023-02-18T08:42:31;98661.06;;;8.93;76.64
19751;BME280;4663;49.120;9.730;2023-02-18T08:44:57;98659.53;;;8.64;77.37
19751;BME280;4663;49.120;9.730;2023-02-18T08:47:22;98657.13;;;8.79;76.65
19751;BME280;4663;49.120;9.730;2023-02-18T08:49:48;98665.19;;;8.79;76.94
19751;BME280;4663;49.120;9.730;2023-02-18T08:52:13;98659.91;;;8.96;76.22
19751;BME280;4663;49.120;9.730;2023-02-18T08:54:38;98671.91;;;9.02;76.94
19751;BME280;4663;49.120;9.730;2023-02-18T08:57:04;98661.59;;;8.97;76.13
19751;BME280;4663;49.120;9.730;2023-02-18T08:59:29;98661.59;;;8.97;76.33
19751;BME280;4663;49.120;9.730;2023-02-18T09:01:54;98661.84;;;9.55;75.90
19751;BME280;4663;49.120;9.730;2023-02-18T09:04:20;98654.63;;;9.56;73.58
19751;BME280;4663;49.120;9.730;2023-02-18T09:06:46;98658.53;;;9.78;74.67
19751;BME280;4663;49.120;9.730;2023-02-18T09:09:12;98639.81;;;9.68;74.56
19751;BME280;4663;49.120;9.730;2023-02-18T09:11:37;98643.34;;;9.77;74.25
19751;BME280;4663;49.120;9.730;2023-02-18T09:14:03;98636.78;;;9.71;72.86
19751;BME280;4663;49.120;9.730;2023-02-18T09:16:28;98634.63;;;9.83;73.11
19751;BME280;4663;49.120;9.730;2023-02-18T09:18:55;98630.28;;;10.07;73.27
19751;BME280;4663;49.120;9.730;2023-02-18T09:21:21;98622.47;;;10.62;71.65
19751;BME280;4663;49.120;9.730;2023-02-18T09:23:48;98628.53;;;10.81;71.49
19751;BME280;4663;49.120;9.730;2023-02-18T09:26:15;98624.44;;;10.94;70.44
19751;BME280;4663;49.120;9.730;2023-02-18T09:28:41;98614.44;;;10.94;69.81
19751;BME280;4663;49.120;9.730;2023-02-18T09:31:12;98609.53;;;11.14;69.72
19751;BME280;4663;49.120;9.730;2023-02-18T09:33:40;98599.00;;;10.71;70.17
19751;BME280;4663;49.120;9.730;2023-02-18T09:36:07;98596.22;;;10.96;70.71
19751;BME280;4663;49.120;9.730;2023-02-18T09:38:32;98598.25;;;10.94;69.67
19751;BME280;4663;49.120;9.730;2023-02-18T09:40:59;98597.56;;;11.40;69.86
19751;BME280;4663;49.120;9.730;2023-02-18T09:43:33;98591.91;;;11.50;69.34
19751;BME280;4663;49.120;9.730;2023-02-18T09:46:01;98597.56;;;11.09;68.63
19751;BME280;4663;49.120;9.730;2023-02-18T09:48:31;98581.22;;;10.94;67.61
19751;BME280;4663;49.120;9.730;2023-02-18T09:50:58;98607.03;;;11.36;69.76
19751;BME280;4663;49.120;9.730;2023-02-18T09:53:24;98601.69;;;11.60;68.70
19751;BME280;4663;49.120;9.730;2023-02-18T09:55:54;98611.16;;;12.11;67.59
19751;BME280;4663;49.120;9.730;2023-02-18T09:58:22;98617.41;;;11.56;67.73
19751;BME280;4663;49.120;9.730;2023-02-18T10:00:55;98606.19;;;11.67;68.08
19751;BME280;4663;49.120;9.730;2023-02-18T10:03:25;98604.66;;;11.41;67.74
19751;BME280;4663;49.120;9.730;2023-02-18T10:08:44;98623.88;;;11.15;68.57
19751;BME280;4663;49.120;9.730;2023-02-18T10:11:17;98609.34;;;11.16;68.42
19751;BME280;4663;49.120;9.730;2023-02-18T10:13:45;98606.44;;;11.26;67.28
19751;BME280;4663;49.120;9.730;2023-02-18T10:16:17;98609.47;;;11.23;67.56
19751;BME280;4663;49.120;9.730;2023-02-18T10:18:45;98615.06;;;11.21;67.33
19751;BME280;4663;49.120;9.730;2023-02-18T10:21:33;98612.63;;;11.66;66.63
19751;BME280;4663;49.120;9.730;2023-02-18T10:24:09;98612.84;;;11.57;67.23
19751;BME280;4663;49.120;9.730;2023-02-18T10:26:38;98631.09;;;11.23;67.71
19751;BME280;4663;49.120;9.730;2023-02-18T10:29:12;98622.09;;;11.31;67.55
19751;BME280;4663;49.120;9.730;2023-02-18T10:31:43;98613.94;;;11.47;67.81
19751;BME280;4663;49.120;9.730;2023-02-18T10:36:56;98603.44;;;11.04;68.12
19751;BME280;4663;49.120;9.730;2023-02-18T10:39:43;98614.25;;;11.04;67.52
19751;BME280;4663;49.120;9.730;2023-02-18T10:50:01;98630.91;;;11.64;67.86
19751;BME280;4663;49.120;9.730;2023-02-18T10:52:35;98598.94;;;11.36;65.60
19751;BME280;4663;49.120;9.730;2023-02-18T10:55:06;98605.53;;;11.34;66.10
19751;BME280;4663;49.120;9.730;2023-02-18T10:57:34;98587.41;;;11.42;66.35
19751;BME280;4663;49.120;9.730;2023-02-18T11:02:37;98596.69;;;11.00;66.53
19751;BME280;4663;49.120;9.730;2023-02-18T11:05:23;98603.78;;;11.18;67.47
19751;BME280;4663;49.120;9.730;2023-02-18T11:07:52;98590.56;;;11.23;66.84
19751;BME280;4663;49.120;9.730;2023-02-18T11:10:23;98608.84;;;11.04;67.89
19751;BME280;4663;49.120;9.730;2023-02-18T11:12:58;98578.63;;;11.09;66.43
19751;BME280;4663;49.120;9.730;2023-02-18T11:15:26;98589.44;;;11.40;67.59
19751;BME280;4663;49.120;9.730;2023-02-18T11:17:57;98579.84;;;10.98;66.99
19751;BME280;4663;49.120;9.730;2023-02-18T11:20:36;98589.94;;;11.04;67.53
19751;BME280;4663;49.120;9.730;2023-02-18T11:25:35;98567.38;;;10.40;68.82
19751;BME280;4663;49.120;9.730;2023-02-18T11:30:42;98578.69;;;10.92;68.51
19751;BME280;4663;49.120;9.730;2023-02-18T11:33:15;98569.69;;;11.00;68.87
19751;BME280;4663;49.120;9.730;2023-02-18T11:35:56;98567.38;;;10.88;68.58
19751;BME280;4663;49.120;9.730;2023-02-18T11:38:28;98577.44;;;10.55;69.38
19751;BME280;4663;49.120;9.730;2023-02-18T11:41:31;98572.31;;;10.76;69.94
19751;BME280;4663;49.120;9.730;2023-02-18T11:43:58;98583.13;;;10.76;69.71
19751;BME280;4663;49.120;9.730;2023-02-18T11:46:25;98585.97;;;10.83;70.00
19751;BME280;4663;49.120;9.730;2023-02-18T11:48:52;98578.47;;;10.54;69.15
19751;BME280;4663;49.120;9.730;2023-02-18T11:51:32;98579.28;;;10.62;70.48
19751;BME280;4663;49.120;9.730;2023-02-18T11:56:31;98582.56;;;10.33;70.44
19751;BME280;4663;49.120;9.730;2023-02-18T11:58:57;98577.19;;;10.08;71.63
19751;BME280;4663;49.120;9.730;2023-02-18T12:04:20;98576.97;;;10.01;71.00
19751;BME280;4663;49.120;9.730;2023-02-18T12:09:49;98568.56;;;10.12;70.92
19751;BME280;4663;49.120;9.730;2023-02-18T12:14:49;98563.66;;;9.91;72.19
19751;BME280;4663;49.120;9.730;2023-02-18T12:17:46;98566.88;;;10.28;71.25
19751;BME280;4663;49.120;9.730;2023-02-18T12:28:01;98548.50;;;10.23;71.24
19751;BME280;4663;49.120;9.730;2023-02-18T12:36:12;98572.06;;;10.38;71.49
19751;BME280;4663;49.120;9.730;2023-02-18T12:44:16;98544.97;;;10.15;71.65
19751;BME280;4663;49.120;9.730;2023-02-18T13:06:32;98533.00;;;10.17;72.72
19751;BME280;4663;49.120;9.730;2023-02-18T13:09:23;98529.47;;;10.08;73.33
19751;BME280;4663;49.120;9.730;2023-02-18T13:12:02;98531.50;;;10.06;72.18
19751;BME280;4663;49.120;9.730;2023-02-18T13:17:09;98527.44;;;10.02;72.20
19751;BME280;4663;49.120;9.730;2023-02-18T13:19:46;98537.84;;;9.97;72.50
19751;BME280;4663;49.120;9.730;2023-02-18T13:22:15;98524.22;;;10.15;72.12
19751;BME280;4663;49.120;9.730;2023-02-18T13:24:44;98518.34;;;10.11;72.09
19751;BME280;4663;49.120;9.730;2023-02-18T13:32:43;98510.53;;;10.25;73.26
19751;BME280;4663;49.120;9.730;2023-02-18T13:40:21;98507.28;;;10.46;72.88
19751;BME280;4663;49.120;9.730;2023-02-18T13:42:53;98506.31;;;10.31;72.48
19751;BME280;4663;49.120;9.730;2023-02-18T13:45:26;98500.69;;;10.57;72.66
19751;BME280;4663;49.120;9.730;2023-02-18T13:47:53;98500.31;;;10.60;72.02
19751;BME280;4663;49.120;9.730;2023-02-18T13:50:25;98500.22;;;10.37;72.21
19751;BME280;4663;49.120;9.730;2023-02-18T13:58:18;98494.91;;;9.70;72.95
19751;BME280;4663;49.120;9.730;2023-02-18T14:00:49;98500.75;;;10.24;73.55
19751;BME280;4663;49.120;9.730;2023-02-18T14:06:17;98510.06;;;10.05;74.00
19751;BME280;4663;49.120;9.730;2023-02-18T14:08:44;98506.03;;;10.00;73.67
19751;BME280;4663;49.120;9.730;2023-02-18T14:16:08;98505.69;;;10.20;73.41
19751;BME280;4663;49.120;9.730;2023-02-18T14:28:44;98495.06;;;9.77;73.78
19751;BME280;4663;49.120;9.730;2023-02-18T14:31:45;98502.16;;;9.70;74.59
19751;BME280;4663;49.120;9.730;2023-02-18T14:39:44;98495.72;;;9.96;73.23
19751;BME280;4663;49.120;9.730;2023-02-18T14:50:15;98478.91;;;9.60;73.02
19751;BME280;4663;49.120;9.730;2023-02-18T14:52:46;98482.28;;;9.62;73.24
19751;BME280;4663;49.120;9.730;2023-02-18T14:55:29;98475.19;;;9.78;72.24
19751;BME280;4663;49.120;9.730;2023-02-18T14:58:06;98483.28;;;9.78;72.90
19751;BME280;4663;49.120;9.730;2023-02-18T15:00:34;98470.47;;;9.72;72.59
19751;BME280;4663;49.120;9.730;2023-02-18T15:03:03;98467.47;;;9.58;71.81
19751;BME280;4663;49.120;9.730;2023-02-18T15:05:31;98477.53;;;9.98;71.81
19751;BME280;4663;49.120;9.730;2023-02-18T15:08:04;98480.59;;;9.86;73.10
19751;BME280;4663;49.120;9.730;2023-02-18T15:15:42;98469.81;;;9.70;72.70
19751;BME280;4663;49.120;9.730;2023-02-18T15:18:26;98479.75;;;9.53;73.02
19751;BME280;4663;49.120;9.730;2023-02-18T15:20:52;98464.56;;;9.52;73.50
19751;BME280;4663;49.120;9.730;2023-02-18T15:23:18;98480.09;;;9.41;72.62
19751;BME280;4663;49.120;9.730;2023-02-18T15:25:50;98479.91;;;9.59;73.32
19751;BME280;4663;49.120;9.730;2023-02-18T15:28:21;98469.81;;;9.45;73.22
19751;BME280;4663;49.120;9.730;2023-02-18T15:30:47;98484.94;;;9.38;73.50
19751;BME280;4663;49.120;9.730;2023-02-18T15:33:14;98472.00;;;9.41;72.38
19751;BME280;4663;49.120;9.730;2023-02-18T15:35:42;98471.84;;;9.43;72.56
19751;BME280;4663;49.120;9.730;2023-02-18T15:38:16;98470.66;;;9.37;72.42
19751;BME280;4663;49.120;9.730;2023-02-18T15:40:42;98485.66;;;9.48;72.06
19751;BME280;4663;49.120;9.730;2023-02-18T15:43:15;98486.66;;;9.39;72.37
19751;BME280;4663;49.120;9.730;2023-02-18T15:45:44;98478.75;;;9.37;71.03
19751;BME280;4663;49.120;9.730;2023-02-18T15:48:28;98484.78;;;9.47;71.71
19751;BME280;4663;49.120;9.730;2023-02-18T15:50:56;98482.56;;;9.09;70.65
19751;BME280;4663;49.120;9.730;2023-02-18T15:53:23;98497.44;;;9.39;71.35
19751;BME280;4663;49.120;9.730;2023-02-18T15:55:51;98464.72;;;9.08;70.32
19751;BME280;4663;49.120;9.730;2023-02-18T15:58:31;98483.59;;;9.42;72.26
19751;BME280;4663;49.120;9.730;2023-02-18T16:01:02;98484.28;;;9.27;71.77
19751;BME280;4663;49.120;9.730;2023-02-18T16:03:49;98484.75;;;9.14;71.63
19751;BME280;4663;49.120;9.730;2023-02-18T16:08:56;98473.81;;;8.99;71.27
19751;BME280;4663;49.120;9.730;2023-02-18T16:11:24;98475.13;;;8.95;71.09
19751;BME280;4663;49.120;9.730;2023-02-18T16:13:51;98482.50;;;8.93;70.95
19751;BME280;4663;49.120;9.730;2023-02-18T16:16:35;98491.28;;;8.95;72.77
19751;BME280;4663;49.120;9.730;2023-02-18T16:19:02;98490.06;;;8.89;72.42
19751;BME280;4663;49.120;9.730;2023-02-18T16:21:38;98492.59;;;8.48;71.77